Time;durP1;ratioP1;P1;durP2;ratioP2;P2;SDS_P1;SDS_P2;PMS_P1;PMS_P2;Temp;Humidity;BMP_temperature;BMP_pressure;BME280_temperature;BME280_humidity;BME280_pressure;Samples;Min_cycle;Max_cycle;Signal;HPM_P1;HPM_P2
2020/12/08 00:01:48;;;;;;;12.63;11.33;;;;;;;3.88;77.96;94090.91;5054918;28;20201;-77
2020/12/08 00:04:14;;;;;;;14.03;12.17;;;;;;;3.83;77.67;94095.75;5055015;28;20762;-79
2020/12/08 00:06:40;;;;;;;14.17;12.60;;;;;;;3.81;78.15;94090.81;5054839;28;20236;-78
2020/12/08 00:09:07;;;;;;;14.13;12.60;;;;;;;3.83;78.39;94098.28;5054450;28;20618;-77
2020/12/08 00:11:33;;;;;;;13.17;11.73;;;;;;;3.81;78.25;94090.81;5053732;28;20232;-77
2020/12/08 00:14:00;;;;;;;14.20;12.37;;;;;;;3.81;78.51;94093.38;5053358;28;20704;-77
2020/12/08 00:16:26;;;;;;;12.67;11.13;;;;;;;3.80;78.35;94095.13;5054054;28;20597;-77
2020/12/08 00:18:52;;;;;;;12.23;10.93;;;;;;;3.77;78.33;94090.38;5053913;28;20237;-77
2020/12/08 00:21:18;;;;;;;12.63;11.30;;;;;;;3.76;78.39;94090.53;5054041;28;20676;-77
2020/12/08 00:23:44;;;;;;;11.73;10.40;;;;;;;3.83;77.98;94095.75;5054096;28;20225;-77
2020/12/08 00:26:13;;;;;;;11.43;10.23;;;;;;;3.85;77.67;94104.78;5053629;28;20201;-77
2020/12/08 00:28:39;;;;;;;12.70;10.63;;;;;;;3.87;77.24;94104.59;5053798;28;20197;-78
2020/12/08 00:31:05;;;;;;;11.67;10.40;;;;;;;3.81;76.72;94104.34;5053338;28;20738;-77
2020/12/08 00:33:31;;;;;;;11.33;10.13;;;;;;;3.77;77.38;94107.41;5053210;28;20217;-78
2020/12/08 00:35:58;;;;;;;13.50;11.10;;;;;;;3.69;77.64;94104.91;5052857;28;20247;-77
2020/12/08 00:38:24;;;;;;;12.20;10.60;;;;;;;3.69;77.17;94099.81;5052986;28;20276;-77
2020/12/08 00:40:50;;;;;;;11.50;9.97;;;;;;;3.69;77.61;94110.00;5053504;28;20205;-78
2020/12/08 00:43:17;;;;;;;10.47;9.23;;;;;;;3.68;77.63;94111.75;5053436;28;20254;-77
2020/12/08 00:45:44;;;;;;;11.13;9.93;;;;;;;3.67;77.13;94115.25;5053178;28;20224;-77
2020/12/08 00:48:10;;;;;;;11.10;9.70;;;;;;;3.65;77.56;94112.13;5053729;28;20665;-76
2020/12/08 00:50:36;;;;;;;10.73;9.33;;;;;;;3.60;76.98;94114.38;5053139;28;20228;-78
2020/12/08 00:53:02;;;;;;;10.67;9.33;;;;;;;3.56;77.33;94118.22;5053447;28;20205;-77
2020/12/08 00:55:28;;;;;;;11.17;9.43;;;;;;;3.51;77.29;94117.91;5052949;28;20230;-78
2020/12/08 00:57:54;;;;;;;10.83;9.57;;;;;;;3.59;77.39;94117.09;5053634;28;20197;-77
2020/12/08 01:00:21;;;;;;;10.67;9.27;;;;;;;3.50;77.41;94113.78;5053037;28;20247;-77
2020/12/08 01:02:47;;;;;;;12.13;10.17;;;;;;;3.50;78.80;94115.53;5053885;28;20205;-77
2020/12/08 01:05:13;;;;;;;11.73;10.53;;;;;;;3.54;77.85;94115.03;5053003;28;20232;-77
2020/12/08 01:07:40;;;;;;;12.63;10.27;;;;;;;3.64;77.63;94112.28;5052825;28;20208;-77
2020/12/08 01:10:07;;;;;;;10.57;9.43;;;;;;;3.73;77.02;94106.94;5052844;28;20205;-77
2020/12/08 01:12:33;;;;;;;11.73;10.17;;;;;;;3.80;76.61;94107.84;5053382;28;20205;-78
2020/12/08 01:14:59;;;;;;;11.00;9.87;;;;;;;3.80;76.16;94107.84;5053134;28;20591;-77
2020/12/08 01:17:26;;;;;;;12.50;10.17;;;;;;;3.86;76.31;94108.91;5052723;28;20236;-77
2020/12/08 01:19:52;;;;;;;12.80;10.33;;;;;;;3.84;76.43;94104.97;5053335;28;20213;-78
2020/12/08 01:22:18;;;;;;;11.83;10.30;;;;;;;3.85;76.75;94107.31;5052950;28;20614;-77
2020/12/08 01:24:43;;;;;;;12.23;10.90;;;;;;;3.84;76.82;94110.84;5052543;28;20247;-77
2020/12/08 01:27:09;;;;;;;12.60;10.93;;;;;;;3.88;76.67;94113.81;5053802;28;20205;-77
2020/12/08 01:29:35;;;;;;;14.03;11.27;;;;;;;3.80;77.13;94115.50;5052946;28;20205;-78
2020/12/08 01:32:04;;;;;;;12.43;11.13;;;;;;;3.74;77.02;94116.16;5053035;28;20236;-79
2020/12/08 01:34:31;;;;;;;13.30;11.33;;;;;;;3.78;77.12;94114.06;5052949;28;20630;-76
2020/12/08 01:36:57;;;;;;;13.23;11.07;;;;;;;3.80;76.94;94117.25;5053034;28;20197;-78
2020/12/08 01:39:23;;;;;;;12.63;11.27;;;;;;;3.80;76.85;94123.13;5052301;28;20205;-77
2020/12/08 01:41:49;;;;;;;13.60;11.53;;;;;;;3.69;77.30;94117.63;5053075;28;20205;-77
2020/12/08 01:44:15;;;;;;;12.63;10.93;;;;;;;3.64;77.75;94120.72;5052437;28;20234;-78
2020/12/08 01:46:41;;;;;;;13.73;11.37;;;;;;;3.65;78.07;94111.31;5052950;28;20251;-77
2020/12/08 01:49:08;;;;;;;11.30;10.07;;;;;;;3.56;77.95;94125.06;5053032;28;20209;-77
2020/12/08 01:51:37;;;;;;;12.27;10.40;;;;;;;3.56;78.12;94120.75;5052476;28;20225;-79
2020/12/08 01:54:04;;;;;;;11.13;9.97;;;;;;;3.41;78.09;94115.59;5052302;28;20232;-77
2020/12/08 01:56:30;;;;;;;11.00;9.37;;;;;;;3.30;78.39;94108.34;5053386;28;20209;-77
2020/12/08 01:58:56;;;;;;;10.90;9.70;;;;;;;3.33;77.55;94119.94;5056122;28;20205;-77
2020/12/08 02:01:22;;;;;;;10.27;9.17;;;;;;;3.34;77.63;94112.16;5056337;28;20197;-79
2020/12/08 02:03:48;;;;;;;10.30;9.20;;;;;;;3.34;77.68;94113.91;5056217;28;20275;-78
2020/12/08 02:06:14;;;;;;;11.17;9.67;;;;;;;3.28;78.04;94122.97;5055776;28;20572;-77
2020/12/08 02:08:41;;;;;;;10.67;9.50;;;;;;;3.40;77.75;94113.22;5056170;28;20216;-77
2020/12/08 02:11:07;;;;;;;10.80;9.33;;;;;;;3.49;77.14;94107.13;5056477;28;20226;-77
2020/12/08 02:13:33;;;;;;;11.23;9.70;;;;;;;3.38;77.09;94110.06;5056464;28;20841;-78
2020/12/08 02:16:00;;;;;;;10.47;9.30;;;;;;;3.40;77.01;94110.69;5055796;28;20209;-77
2020/12/08 02:18:26;;;;;;;9.57;8.57;;;;;;;3.36;76.96;94109.44;5056542;28;20220;-78
2020/12/08 02:20:56;;;;;;;9.07;8.17;;;;;;;3.33;76.52;94097.06;5055519;28;20568;-77
2020/12/08 02:23:22;;;;;;;11.70;9.10;;;;;;;3.23;77.19;94109.22;5056202;28;20198;-77
2020/12/08 02:25:56;;;;;;;15.70;10.10;;;;;;;3.18;77.61;94112.25;5055364;28;20236;-77
2020/12/08 02:28:22;;;;;;;12.67;10.30;;;;;;;3.21;77.51;94111.13;5055808;28;20206;-76
2020/12/08 02:30:48;;;;;;;11.87;10.33;;;;;;;3.23;78.03;94104.91;5056007;28;20218;-76
2020/12/08 02:33:14;;;;;;;11.53;9.90;;;;;;;3.17;78.17;94103.03;5055905;28;20209;-76
2020/12/08 02:35:40;;;;;;;10.40;8.77;;;;;;;3.11;78.29;94108.78;5055469;28;20205;-77
2020/12/08 02:38:07;;;;;;;10.03;8.93;;;;;;;3.07;77.93;94100.72;5055932;28;20212;-77
2020/12/08 02:40:33;;;;;;;9.63;8.63;;;;;;;3.06;77.67;94099.13;5056221;28;20205;-78
2020/12/08 02:42:59;;;;;;;10.50;8.70;;;;;;;2.94;78.42;94097.91;5055731;28;20235;-77
2020/12/08 02:45:25;;;;;;;10.17;8.90;;;;;;;2.98;78.02;94106.00;5055267;28;20237;-77
2020/12/08 02:47:51;;;;;;;11.07;8.87;;;;;;;2.96;78.35;94090.91;5055524;28;20205;-77
2020/12/08 02:50:17;;;;;;;13.83;9.30;;;;;;;2.91;77.89;94093.16;5055943;28;20550;-77
2020/12/08 02:52:43;;;;;;;9.97;8.90;;;;;;;2.88;78.37;94092.72;5055783;28;20198;-77
2020/12/08 02:55:09;;;;;;;10.40;8.70;;;;;;;2.85;78.90;94090.50;5055240;28;20731;-77
2020/12/08 02:57:35;;;;;;;27.97;10.23;;;;;;;2.81;78.99;94089.25;5055472;28;20643;-77
2020/12/08 03:00:01;;;;;;;26.87;10.10;;;;;;;2.75;79.10;94083.06;5055308;28;20206;-78
2020/12/08 03:02:27;;;;;;;13.00;9.57;;;;;;;2.68;79.90;94082.94;5055527;28;20212;-78
2020/12/08 03:04:53;;;;;;;60.37;10.87;;;;;;;2.72;80.02;94079.09;5054782;28;20229;-77
2020/12/08 03:07:19;;;;;;;11.00;9.33;;;;;;;2.65;80.70;94082.50;5055386;28;20681;-77
2020/12/08 03:09:45;;;;;;;12.37;9.63;;;;;;;2.72;80.45;94086.72;5054792;28;20699;-76
2020/12/08 03:12:13;;;;;;;19.50;10.90;;;;;;;2.74;81.06;94087.34;5055168;28;20229;-77
2020/12/08 03:14:38;;;;;;;11.13;9.80;;;;;;;2.86;79.88;94087.78;5054992;28;20711;-77
2020/12/08 03:17:05;;;;;;;15.67;10.70;;;;;;;2.69;81.02;94096.44;5054802;28;20255;-77
2020/12/08 03:19:31;;;;;;;12.00;10.17;;;;;;;2.78;80.38;94095.44;5055239;28;20255;-77
2020/12/08 03:21:57;;;;;;;12.63;9.77;;;;;;;2.68;80.79;94092.31;5055461;28;20324;-78
2020/12/08 03:24:23;;;;;;;11.67;9.87;;;;;;;2.59;81.34;94090.75;5054548;28;20690;-77
2020/12/08 03:26:49;;;;;;;12.07;9.93;;;;;;;2.57;82.18;94085.84;5054684;28;20220;-79
2020/12/08 03:29:16;;;;;;;12.03;10.50;;;;;;;2.74;81.42;94079.72;5054589;28;20822;-77
2020/12/08 03:31:42;;;;;;;14.23;10.97;;;;;;;2.72;81.74;94084.19;5053851;28;20719;-77
2020/12/08 03:34:08;;;;;;;13.20;10.70;;;;;;;2.72;81.93;94084.19;5054133;28;20221;-77
2020/12/08 03:36:34;;;;;;;12.10;10.20;;;;;;;2.86;81.06;94079.38;5054716;28;20205;-77
2020/12/08 03:39:00;;;;;;;12.30;11.00;;;;;;;3.02;80.37;94075.00;5053807;28;20278;-77
2020/12/08 03:41:26;;;;;;;11.20;9.97;;;;;;;3.13;80.05;94071.25;5054266;28;20201;-77
2020/12/08 03:43:52;;;;;;;13.27;10.93;;;;;;;3.18;79.25;94078.41;5053871;28;20233;-77
2020/12/08 03:46:20;;;;;;;12.60;10.43;;;;;;;3.23;78.95;94083.78;5054105;28;20205;-77
2020/12/08 03:48:46;;;;;;;11.77;10.27;;;;;;;3.22;78.71;94083.00;5054198;28;20205;-76
2020/12/08 03:51:13;;;;;;;12.23;10.57;;;;;;;2.97;79.95;94082.31;5053947;28;20707;-77
2020/12/08 03:53:40;;;;;;;15.17;11.07;;;;;;;2.93;81.02;94077.75;5054574;28;20221;-78
2020/12/08 03:56:09;;;;;;;14.40;11.63;;;;;;;2.85;81.47;94062.53;5054450;28;20201;-78
2020/12/08 03:58:35;;;;;;;15.03;12.00;;;;;;;2.85;81.50;94063.34;5055560;28;20220;-78
2020/12/08 04:01:01;;;;;;;22.47;12.17;;;;;;;2.88;81.30;94064.75;5056317;28;20656;-78
2020/12/08 04:03:28;;;;;;;14.77;11.77;;;;;;;2.77;81.16;94060.81;5055606;28;20201;-77
2020/12/08 04:05:59;;;;;;;14.83;11.37;;;;;;;2.74;81.56;94063.69;5055054;28;20210;-78
2020/12/08 04:08:25;;;;;;;13.60;11.70;;;;;;;2.67;82.65;94075.50;5055275;28;20582;-77
2020/12/08 04:10:51;;;;;;;18.03;11.80;;;;;;;2.80;81.81;94077.50;5055304;28;20217;-77
2020/12/08 04:13:17;;;;;;;16.00;11.77;;;;;;;2.79;81.59;94076.69;5055196;28;20243;-78
2020/12/08 04:15:43;;;;;;;15.57;12.37;;;;;;;2.84;82.02;94087.16;5054831;28;20236;-78
2020/12/08 04:18:12;;;;;;;16.87;12.10;;;;;;;2.88;81.63;94083.34;5055400;28;20205;-78
2020/12/08 04:20:41;;;;;;;61.47;13.80;;;;;;;2.79;81.36;94079.25;5055188;28;20205;-79
2020/12/08 04:23:07;;;;;;;31.27;12.60;;;;;;;2.64;82.54;94083.44;5054956;28;20201;-78
2020/12/08 04:25:33;;;;;;;16.77;13.27;;;;;;;2.64;82.86;94081.69;5054400;28;20225;-78
2020/12/08 04:27:59;;;;;;;37.37;13.47;;;;;;;2.52;82.97;94077.13;5054903;28;20209;-78
2020/12/08 04:30:25;;;;;;;14.90;11.73;;;;;;;2.47;83.80;94072.56;5055187;28;20646;-80
2020/12/08 04:32:51;;;;;;;22.83;12.50;;;;;;;2.50;83.66;94068.91;5054509;28;20197;-78
2020/12/08 04:35:17;;;;;;;24.00;11.87;;;;;;;2.35;84.30;94079.72;5055058;28;20280;-78
2020/12/08 04:37:43;;;;;;;20.70;12.37;;;;;;;2.35;84.52;94077.19;5054874;28;20236;-79
2020/12/08 04:40:09;;;;;;;16.80;11.60;;;;;;;2.42;83.89;94084.94;5054467;28;20259;-78
2020/12/08 04:42:43;;;;;;;28.60;12.37;;;;;;;2.53;82.72;94096.47;5054162;28;20193;-78
2020/12/08 04:45:09;;;;;;;19.03;12.37;;;;;;;2.56;83.04;94094.41;5054316;28;20241;-78
2020/12/08 04:47:37;;;;;;;15.90;11.87;;;;;;;2.68;82.05;94097.41;5054828;28;20210;-80
2020/12/08 04:50:03;;;;;;;26.97;12.50;;;;;;;2.56;82.54;94096.16;5054615;28;20197;-78
2020/12/08 04:52:29;;;;;;;40.17;13.10;;;;;;;2.43;82.83;94092.41;5055058;28;20564;-80
2020/12/08 04:54:56;;;;;;;19.43;11.70;;;;;;;2.28;83.90;94094.03;5054646;28;20225;-79
2020/12/08 04:57:23;;;;;;;18.57;11.57;;;;;;;2.26;84.77;94095.16;5054460;28;20209;-78
2020/12/08 04:59:49;;;;;;;17.07;11.17;;;;;;;2.09;85.76;94104.56;5054764;28;20205;-78
2020/12/08 05:02:15;;;;;;;17.57;11.10;;;;;;;2.05;85.87;94095.66;5054627;28;20706;-77
2020/12/08 05:04:41;;;;;;;13.57;10.77;;;;;;;2.10;85.31;94078.22;5053906;28;20232;-77
2020/12/08 05:07:08;;;;;;;13.00;9.97;;;;;;;2.12;84.66;94086.44;5055323;28;20224;-78
2020/12/08 05:09:43;;;;;;;17.30;9.67;;;;;;;1.86;85.98;94093.47;5050567;28;20212;-78
2020/12/08 05:12:10;;;;;;;19.80;10.77;;;;;;;1.92;85.24;94091.09;5052663;28;20275;-77
2020/12/08 05:14:41;;;;;;;12.27;9.17;;;;;;;1.94;84.99;94078.22;5051658;28;20228;-77
2020/12/08 05:17:07;;;;;;;12.03;9.43;;;;;;;2.02;84.07;94078.22;5055579;28;20838;-77
2020/12/08 05:19:33;;;;;;;11.40;9.47;;;;;;;2.04;84.23;94079.66;5072883;28;20201;-77
2020/12/08 05:21:59;;;;;;;11.53;8.93;;;;;;;2.14;83.76;94076.13;5072927;28;20309;-77
2020/12/08 05:24:26;;;;;;;10.30;8.43;;;;;;;2.26;83.93;94074.84;5072323;28;20776;-78
2020/12/08 05:26:57;;;;;;;13.03;9.17;;;;;;;2.46;82.74;94067.63;5073742;28;20287;-78
2020/12/08 05:29:26;;;;;;;10.60;9.00;;;;;;;2.62;81.32;94075.19;5074150;28;20204;-79
2020/12/08 05:31:53;;;;;;;13.50;9.50;;;;;;;2.41;81.75;94079.06;5074151;28;20290;-77
2020/12/08 05:34:21;;;;;;;14.17;9.23;;;;;;;2.20;81.98;94086.44;5076380;28;20270;-78
2020/12/08 05:36:49;;;;;;;11.90;9.50;;;;;;;2.17;81.92;94091.03;5077132;28;20778;-78
2020/12/08 05:39:18;;;;;;;13.63;9.40;;;;;;;1.90;83.43;94102.34;5062523;28;20205;-77
2020/12/08 05:41:45;;;;;;;14.73;9.97;;;;;;;1.88;83.69;94110.13;5056892;28;20202;-76
2020/12/08 05:44:17;;;;;;;11.80;9.90;;;;;;;2.04;83.51;94107.56;5056189;28;20244;-77
2020/12/08 05:46:44;;;;;;;12.13;9.27;;;;;;;2.15;82.45;94114.03;5056229;28;20213;-77
2020/12/08 05:49:11;;;;;;;12.80;8.97;;;;;;;2.23;81.73;94116.56;5056436;28;20210;-77
2020/12/08 05:51:45;;;;;;;12.87;9.20;;;;;;;2.33;81.72;94118.91;5056425;28;20315;-78
2020/12/08 05:54:17;;;;;;;12.77;8.97;;;;;;;2.39;80.72;94108.91;5056020;28;20221;-79
2020/12/08 05:56:43;;;;;;;9.37;8.37;;;;;;;2.55;80.40;94108.06;5057052;28;20210;-77
2020/12/08 05:59:09;;;;;;;11.80;9.20;;;;;;;2.67;79.82;94104.22;5056641;28;20202;-77
2020/12/08 06:01:47;;;;;;;12.90;8.83;;;;;;;2.82;79.10;94103.53;5056436;28;20208;-76
2020/12/08 06:04:13;;;;;;;10.97;8.60;;;;;;;2.68;78.58;94098.19;5056799;28;20232;-78
2020/12/08 06:06:46;;;;;;;10.00;8.30;;;;;;;2.58;79.08;94102.66;5056835;28;20204;-77
2020/12/08 06:09:21;;;;;;;10.33;8.67;;;;;;;2.63;78.95;94112.34;5056914;28;20681;-78
2020/12/08 06:11:47;;;;;;;9.73;8.53;;;;;;;2.53;79.05;94119.34;5057219;28;20228;-77
2020/12/08 06:14:13;;;;;;;44.33;33.50;;;;;;;2.49;79.88;94118.91;5056209;28;20304;-76
2020/12/08 06:16:40;;;;;;;75.07;52.17;;;;;;;2.56;80.02;94124.91;5059957;28;20735;-77
2020/12/08 06:19:07;;;;;;;14.33;12.17;;;;;;;2.59;79.67;94122.03;5060072;28;20213;-78
2020/12/08 06:21:38;;;;;;;11.23;9.53;;;;;;;2.57;78.75;94115.53;5058779;28;20198;-76
2020/12/08 06:24:05;;;;;;;9.83;8.83;;;;;;;2.55;79.79;94110.59;5056201;28;20252;-78
2020/12/08 06:26:34;;;;;;;9.50;8.47;;;;;;;2.66;79.59;94124.72;5056621;28;20209;-78
2020/12/08 06:29:06;;;;;;;11.20;8.70;;;;;;;2.81;78.50;94118.00;5056344;28;20248;-79
2020/12/08 06:31:40;;;;;;;9.20;8.23;;;;;;;2.94;78.46;94117.44;5056116;28;20216;-77
2020/12/08 06:34:06;;;;;;;10.17;9.00;;;;;;;2.98;77.88;94119.50;5081932;23;20245;-77
2020/12/08 06:36:34;;;;;;;11.40;9.43;;;;;;;2.99;78.14;94113.47;5074449;28;20208;-76
2020/12/08 06:39:02;;;;;;;11.43;8.90;;;;;;;2.92;78.24;94121.91;5074983;28;20240;-77
2020/12/08 06:41:30;;;;;;;37.20;27.73;;;;;;;2.99;77.78;94112.66;5074551;28;20659;-76
2020/12/08 06:43:59;;;;;;;34.10;27.23;;;;;;;3.07;77.04;94112.63;5073532;28;20224;-77
2020/12/08 06:46:26;;;;;;;20.77;15.93;;;;;;;3.14;76.72;94113.53;5074539;28;20209;-77
2020/12/08 06:48:59;;;;;;;11.53;9.83;;;;;;;3.17;76.03;94112.41;5074565;28;20201;-78
2020/12/08 06:51:27;;;;;;;10.00;8.87;;;;;;;3.20;75.98;94107.00;5074460;28;20278;-77
2020/12/08 06:53:56;;;;;;;8.80;7.90;;;;;;;3.20;75.74;94107.78;5073950;28;20256;-78
2020/12/08 06:56:29;;;;;;;8.97;7.90;;;;;;;3.21;75.23;94117.00;5073921;28;20239;-77
2020/12/08 06:58:55;;;;;;;8.93;7.70;;;;;;;3.21;74.95;94113.66;5074231;28;20254;-77
2020/12/08 07:01:21;;;;;;;8.53;7.63;;;;;;;3.25;74.98;94109.84;5073963;28;20600;-76
2020/12/08 07:03:47;;;;;;;45.47;34.13;;;;;;;3.13;74.99;94110.19;5073480;28;20677;-76
2020/12/08 07:06:13;;;;;;;14.00;11.70;;;;;;;2.93;74.85;94110.78;5073570;28;20219;-77
2020/12/08 07:08:45;;;;;;;11.67;9.80;;;;;;;2.95;75.64;94112.19;5073695;28;20204;-76
2020/12/08 07:11:17;;;;;;;9.13;8.00;;;;;;;3.00;74.98;94115.03;5073790;28;20224;-77
2020/12/08 07:13:57;;;;;;;9.20;7.90;;;;;;;3.07;74.86;94110.88;5073554;28;20255;-77
2020/12/08 07:16:24;;;;;;;8.50;7.60;;;;;;;3.07;74.45;94105.81;5073718;28;20207;-78
2020/12/08 07:18:50;;;;;;;8.40;7.50;;;;;;;3.13;74.73;94107.66;5073948;28;20228;-78
2020/12/08 07:21:18;;;;;;;8.00;7.20;;;;;;;2.90;74.61;94101.72;5073856;28;20206;-78
2020/12/08 07:23:45;;;;;;;7.57;6.83;;;;;;;2.96;74.63;94097.75;5073273;28;20270;-77
2020/12/08 07:26:14;;;;;;;8.50;7.60;;;;;;;3.00;74.24;94092.16;5073452;28;20212;-77
2020/12/08 07:28:40;;;;;;;9.03;7.50;;;;;;;2.90;73.86;94094.09;5073108;28;20208;-77
2020/12/08 07:31:17;;;;;;;8.77;7.87;;;;;;;2.76;74.32;94090.53;5073009;28;20264;-77
2020/12/08 07:33:43;;;;;;;9.37;7.87;;;;;;;2.84;74.32;94089.72;5072604;28;20254;-77
2020/12/08 07:36:24;;;;;;;9.27;7.73;;;;;;;2.91;73.85;94102.53;5073096;28;20631;-77
2020/12/08 07:38:52;;;;;;;11.33;8.33;;;;;;;2.94;73.59;94099.66;5073506;28;20204;-76
2020/12/08 07:41:20;;;;;;;10.13;8.33;;;;;;;2.83;73.99;94100.84;5072829;28;20201;-77
2020/12/08 07:43:47;;;;;;;9.97;8.30;;;;;;;2.72;75.04;94111.34;5072728;28;20224;-76
2020/12/08 07:46:13;;;;;;;24.73;17.30;;;;;;;2.76;73.91;94115.16;5072554;28;20582;-76
2020/12/08 07:48:39;;;;;;;41.80;30.90;;;;;;;2.79;73.79;94112.28;5073215;28;20209;-76
2020/12/08 07:51:05;;;;;;;17.00;14.23;;;;;;;2.86;74.08;94118.28;5072536;28;20228;-76
2020/12/08 07:53:37;;;;;;;10.63;8.63;;;;;;;2.81;73.68;94115.44;5072999;28;20274;-76
2020/12/08 07:56:04;;;;;;;10.30;8.50;;;;;;;2.93;73.63;94109.03;5071520;28;20667;-76
2020/12/08 07:58:30;;;;;;;10.77;8.37;;;;;;;3.01;73.75;94103.91;5072912;28;20228;-78
2020/12/08 08:00:56;;;;;;;11.30;8.53;;;;;;;3.03;73.31;94111.38;5072517;28;20197;-77
2020/12/08 08:03:23;;;;;;;10.40;8.00;;;;;;;2.99;73.11;94105.81;5073084;28;20201;-76
2020/12/08 08:05:49;;;;;;;9.90;8.50;;;;;;;2.80;73.21;94110.53;5072720;28;20679;-77
2020/12/08 08:08:15;;;;;;;11.10;8.10;;;;;;;2.63;73.83;94112.34;5072491;28;20330;-77
2020/12/08 08:10:41;;;;;;;9.97;8.30;;;;;;;2.46;74.76;94115.91;5072467;28;20334;-77
2020/12/08 08:13:08;;;;;;;9.87;7.97;;;;;;;2.30;75.79;94109.13;5072463;28;20315;-77
2020/12/08 08:15:34;;;;;;;9.00;7.63;;;;;;;2.42;76.04;94107.81;5071780;28;20224;-77
2020/12/08 08:18:00;;;;;;;11.17;8.40;;;;;;;2.45;75.48;94106.69;5072555;28;20207;-75
2020/12/08 08:20:26;;;;;;;9.23;8.20;;;;;;;2.53;75.64;94112.53;5072695;28;20231;-77
2020/12/08 08:22:52;;;;;;;11.27;9.20;;;;;;;2.42;75.21;94105.25;5072136;28;20200;-77
2020/12/08 08:25:18;;;;;;;11.07;9.00;;;;;;;2.43;74.99;94110.19;5071794;28;20282;-76
2020/12/08 08:27:44;;;;;;;15.27;9.80;;;;;;;2.31;75.05;94108.16;5072101;28;20196;-76
2020/12/08 08:30:12;;;;;;;9.73;8.73;;;;;;;2.41;75.50;94117.16;5071797;28;20636;-77
2020/12/08 08:32:38;;;;;;;12.60;8.90;;;;;;;2.50;75.06;94119.69;5072497;28;20636;-76
2020/12/08 08:35:04;;;;;;;13.73;8.90;;;;;;;2.65;74.46;94113.78;5071519;28;20239;-76
2020/12/08 08:37:30;;;;;;;8.83;7.93;;;;;;;2.79;74.24;94119.91;5072297;28;20200;-76
2020/12/08 08:39:56;;;;;;;9.37;7.50;;;;;;;2.91;73.61;94121.09;5072325;28;20200;-76
2020/12/08 08:42:22;;;;;;;11.20;7.63;;;;;;;3.06;73.54;94128.84;5072162;28;20197;-76
2020/12/08 08:44:48;;;;;;;8.83;7.93;;;;;;;3.16;72.92;94123.53;5071632;28;20252;-76
2020/12/08 08:47:14;;;;;;;8.87;7.73;;;;;;;3.23;72.80;94124.47;5071903;28;20193;-77
2020/12/08 08:49:40;;;;;;;35.00;25.20;;;;;;;3.23;71.77;94129.56;5072143;28;20208;-76
2020/12/08 08:52:06;;;;;;;30.50;21.23;;;;;;;3.24;71.84;94129.38;5072024;28;20251;-76
2020/12/08 08:54:32;;;;;;;14.43;10.63;;;;;;;3.22;71.63;94133.06;5071695;28;20217;-76
2020/12/08 08:56:58;;;;;;;8.50;7.63;;;;;;;3.19;71.61;94141.00;5071980;28;20200;-76
2020/12/08 08:59:24;;;;;;;11.70;7.90;;;;;;;3.19;71.66;94148.63;5072041;28;20204;-77
2020/12/08 09:01:50;;;;;;;10.07;7.47;;;;;;;3.30;71.71;94143.16;5069862;28;20247;-76
2020/12/08 09:04:17;;;;;;;9.47;8.20;;;;;;;3.42;71.37;94141.84;5070623;28;20217;-76
2020/12/08 09:06:43;;;;;;;9.73;8.13;;;;;;;3.55;71.08;94152.25;5069738;28;20216;-76
2020/12/08 09:09:10;;;;;;;7.87;6.87;;;;;;;3.89;96.23;94135.78;5074034;28;20200;-78
2020/12/08 09:11:36;;;;;;;6.33;5.73;;;;;;;4.65;92.95;94133.00;5075860;28;20699;-77
2020/12/08 09:14:04;;;;;;;8.53;6.73;;;;;;;5.29;85.42;94138.28;5075015;28;20224;-77
2020/12/08 09:16:30;;;;;;;8.73;7.57;;;;;;;5.16;69.74;94133.84;5076949;28;20224;-77
2020/12/08 09:18:56;;;;;;;9.70;7.87;;;;;;;5.00;67.79;94126.41;5075524;28;20678;-77
2020/12/08 09:21:23;;;;;;;9.07;7.50;;;;;;;4.83;68.23;94124.97;5076071;28;20239;-77
2020/12/08 09:23:49;;;;;;;10.73;8.27;;;;;;;4.66;68.21;94134.56;5075170;28;20738;-77
2020/12/08 09:26:15;;;;;;;10.00;7.87;;;;;;;4.52;68.25;94122.63;5075523;28;20200;-77
2020/12/08 09:28:42;;;;;;;9.20;8.23;;;;;;;4.43;68.98;94121.13;5075473;28;20245;-77
2020/12/08 09:31:08;;;;;;;9.40;8.23;;;;;;;4.35;69.20;94131.41;5075690;28;20200;-77
2020/12/08 09:33:38;;;;;;;10.07;8.63;;;;;;;4.09;68.94;94130.03;5075545;28;20243;-76
2020/12/08 09:36:04;;;;;;;10.03;8.73;;;;;;;4.04;70.08;94136.63;5075241;28;20667;-76
2020/12/08 09:38:31;;;;;;;9.53;8.40;;;;;;;4.04;69.67;94144.28;5075867;28;20550;-77
2020/12/08 09:40:57;;;;;;;10.27;9.17;;;;;;;3.84;70.74;94141.41;5075658;28;20215;-77
2020/12/08 09:43:26;;;;;;;11.30;8.70;;;;;;;3.78;71.02;94142.88;5075243;28;20213;-77
2020/12/08 09:45:52;;;;;;;16.77;8.93;;;;;;;3.77;70.59;94143.03;5075313;28;20213;-76
2020/12/08 09:48:41;;;;;;;9.70;8.70;;;;;;;3.84;70.50;94133.75;5075970;28;20240;-77
2020/12/08 09:51:07;;;;;;;10.03;8.27;;;;;;;3.93;70.60;94142.91;5076458;28;20670;-79
2020/12/08 09:53:34;;;;;;;9.83;7.90;;;;;;;4.00;70.41;94137.94;5093877;28;20203;-77
2020/12/08 09:56:00;;;;;;;9.30;8.40;;;;;;;4.11;70.55;94124.78;5095730;28;20234;-77
2020/12/08 09:58:26;;;;;;;8.17;7.37;;;;;;;4.08;69.50;94128.44;5096804;28;20208;-77
2020/12/08 10:00:52;;;;;;;11.23;7.90;;;;;;;4.17;70.03;94126.63;5095611;28;20227;-78
2020/12/08 10:03:21;;;;;;;11.90;7.70;;;;;;;4.24;69.71;94126.72;5095753;28;20204;-77
2020/12/08 10:05:47;;;;;;;16.23;7.90;;;;;;;4.25;69.26;94111.25;5096054;28;20211;-77
2020/12/08 10:08:19;;;;;;;9.30;8.20;;;;;;;4.32;69.47;94108.81;5095576;28;20615;-77
2020/12/08 10:10:49;;;;;;;13.17;8.87;;;;;;;4.25;68.93;94100.28;5093807;28;20212;-78
2020/12/08 10:13:15;;;;;;;9.93;8.30;;;;;;;3.97;69.14;94102.63;5075684;28;20311;-77
2020/12/08 10:15:41;;;;;;;9.37;8.37;;;;;;;3.98;70.49;94089.72;5075321;28;20220;-77
2020/12/08 10:18:07;;;;;;;9.67;8.57;;;;;;;4.04;69.82;94089.00;5074551;28;20659;-77
2020/12/08 10:20:36;;;;;;;11.20;8.43;;;;;;;4.01;70.18;94081.75;5075427;28;20204;-77
2020/12/08 10:23:03;;;;;;;9.73;7.97;;;;;;;3.94;69.97;94085.94;5075342;28;20742;-79
2020/12/08 10:25:29;;;;;;;11.23;8.30;;;;;;;4.01;70.22;94083.50;5075002;28;20224;-77
2020/12/08 10:27:55;;;;;;;11.93;7.90;;;;;;;4.18;70.28;94086.69;5075552;28;20291;-78
2020/12/08 10:30:22;;;;;;;8.67;7.77;;;;;;;4.30;70.09;94088.59;5075058;28;20247;-78
2020/12/08 10:32:48;;;;;;;108.53;76.03;;;;;;;4.31;70.15;94095.28;5074892;28;20221;-78
2020/12/08 10:35:13;;;;;;;49.63;36.37;;;;;;;4.42;70.41;94092.31;5074545;28;20773;-77
2020/12/08 10:37:39;;;;;;;33.73;22.77;;;;;;;4.55;70.02;94083.25;5075274;28;20235;-77
2020/12/08 10:40:05;;;;;;;17.73;13.47;;;;;;;4.62;69.56;94084.16;5075727;28;20615;-77
2020/12/08 10:42:31;;;;;;;12.23;10.43;;;;;;;4.65;70.15;94084.56;5075572;28;20667;-77
2020/12/08 10:44:58;;;;;;;11.17;8.83;;;;;;;4.70;69.10;94084.03;5075387;28;20243;-77
2020/12/08 10:47:24;;;;;;;12.03;8.00;;;;;;;4.75;68.99;94081.75;5075463;28;20563;-77
2020/12/08 10:49:50;;;;;;;10.20;8.23;;;;;;;4.83;68.87;94079.88;5075291;28;20635;-77
2020/12/08 10:52:20;;;;;;;12.53;7.93;;;;;;;4.88;68.86;94081.13;5074862;28;20271;-77
2020/12/08 10:54:45;;;;;;;11.33;7.93;;;;;;;4.94;68.34;94070.22;5074536;28;20232;-77
2020/12/08 10:57:11;;;;;;;11.53;7.97;;;;;;;4.98;68.35;94062.03;5074756;28;20201;-78
2020/12/08 10:59:37;;;;;;;12.30;7.67;;;;;;;5.03;68.64;94064.81;5074748;28;20200;-77
2020/12/08 11:02:04;;;;;;;12.30;8.60;;;;;;;5.04;68.44;94066.38;5074995;28;20687;-77
2020/12/08 11:04:30;;;;;;;15.40;8.53;;;;;;;5.00;68.54;94057.53;5074848;28;20232;-79
2020/12/08 11:06:56;;;;;;;12.57;8.37;;;;;;;5.02;68.51;94060.69;5074806;28;20573;-77
2020/12/08 11:09:22;;;;;;;9.40;7.63;;;;;;;5.04;68.85;94068.16;5074456;28;20204;-77
2020/12/08 11:11:48;;;;;;;12.83;8.27;;;;;;;4.97;68.30;94060.44;5074272;28;20315;-78
2020/12/08 11:14:14;;;;;;;35.60;27.30;;;;;;;4.92;68.24;94054.28;5074343;28;20233;-79
2020/12/08 11:16:40;;;;;;;20.07;15.37;;;;;;;4.90;68.14;94059.56;5074767;28;20687;-77
2020/12/08 11:19:07;;;;;;;12.50;9.57;;;;;;;4.90;68.14;94058.78;5074856;28;20251;-77
2020/12/08 11:21:33;;;;;;;14.90;8.50;;;;;;;4.79;68.47;94052.41;5074902;28;20574;-78
2020/12/08 11:23:59;;;;;;;11.50;8.27;;;;;;;4.81;68.67;94050.47;5074099;28;20757;-77
2020/12/08 11:26:28;;;;;;;9.37;7.67;;;;;;;4.82;68.07;94054.56;5074096;28;20215;-77
2020/12/08 11:28:53;;;;;;;12.73;8.40;;;;;;;4.82;68.09;94049.47;5073550;28;20814;-77
2020/12/08 11:31:20;;;;;;;12.60;7.47;;;;;;;4.85;68.36;94049.91;5073733;28;20241;-77